createdAt,value
2023-04-07T00:00:25.740Z,56.50
2023-04-07T00:02:52.521Z,56.90
2023-04-07T00:05:19.301Z,56.70
2023-04-07T00:07:55.997Z,57.90
2023-04-07T00:10:24.904Z,58.00
2023-04-07T00:12:51.826Z,58.30
2023-04-07T00:15:18.647Z,58.50
2023-04-07T00:17:45.384Z,58.80
2023-04-07T00:20:12.568Z,59.20
2023-04-07T00:22:39.657Z,61.00
2023-04-07T00:25:06.983Z,62.50
2023-04-07T00:27:33.679Z,64.50
2023-04-07T00:30:00.469Z,65.80
2023-04-07T00:32:27.157Z,66.80
2023-04-07T00:34:53.881Z,67.20
2023-04-07T00:37:21.572Z,67.30
2023-04-07T00:39:48.312Z,67.70
2023-04-07T00:42:15.368Z,67.80
2023-04-07T12:31:44.032Z,49.30
2023-04-07T12:34:10.707Z,50.80
2023-04-07T12:36:37.342Z,51.20
2023-04-07T12:39:04.022Z,51.20
2023-04-07T12:41:31.296Z,51.20
2023-04-07T12:43:57.989Z,51.50
2023-04-07T12:46:24.946Z,51.10
2023-04-07T12:48:51.711Z,50.50
2023-04-07T12:51:18.436Z,51.00
2023-04-07T12:53:45.304Z,51.80
2023-04-07T12:56:13.139Z,51.50
2023-04-07T12:58:40.647Z,51.40
2023-04-07T13:01:07.847Z,50.20
2023-04-07T13:03:34.923Z,49.70
2023-04-07T13:06:02.421Z,49.70
2023-04-07T13:08:29.280Z,48.90
2023-04-07T13:10:56.738Z,48.70
2023-04-07T13:13:23.895Z,48.10
2023-04-07T13:15:50.784Z,47.60
2023-04-07T13:18:17.609Z,47.50
2023-04-07T13:20:54.408Z,47.10
2023-04-07T13:23:42.151Z,46.90
2023-04-07T13:26:09.744Z,45.40
2023-04-07T13:28:36.446Z,45.00
2023-04-07T13:31:03.286Z,45.00
2023-04-07T13:33:30.005Z,44.20
2023-04-07T13:35:56.898Z,44.20
2023-04-07T13:38:23.627Z,44.80
2023-04-07T13:40:50.254Z,44.90
2023-04-07T13:43:18.521Z,46.40
2023-04-07T13:45:45.256Z,46.60
2023-04-07T13:48:12.035Z,46.80
2023-04-07T13:50:38.851Z,46.40
2023-04-07T13:53:05.524Z,46.50
2023-04-07T13:55:32.217Z,47.90
2023-04-07T13:57:58.895Z,47.40
2023-04-07T14:00:26.113Z,48.90
2023-04-07T14:02:53.411Z,48.60
2023-04-07T14:05:20.204Z,47.90
2023-04-07T14:07:47.289Z,48.40
2023-04-07T14:10:14.110Z,48.80
2023-04-07T14:12:41.082Z,49.20
2023-04-07T14:15:09.300Z,49.90
2023-04-07T14:17:37.111Z,49.70
2023-04-07T14:20:04.144Z,48.90
2023-04-07T14:22:30.944Z,49.60
2023-04-07T14:24:57.946Z,49.00
2023-04-07T14:27:24.606Z,49.50
2023-04-07T14:29:51.304Z,49.80
2023-04-07T14:32:17.970Z,50.10
2023-04-07T14:34:44.718Z,50.70
2023-04-07T14:37:11.759Z,50.50
2023-04-07T14:39:39.513Z,50.90
2023-04-07T14:42:07.449Z,50.70
2023-04-07T14:44:34.118Z,51.00
2023-04-07T14:47:01.529Z,50.80
2023-04-07T14:49:28.811Z,50.20
2023-04-07T14:51:55.479Z,50.10
2023-04-07T14:54:23.196Z,50.20
2023-04-07T14:56:49.849Z,49.90
2023-04-07T14:59:16.593Z,50.50
2023-04-07T15:01:43.452Z,50.80
2023-04-07T15:04:10.359Z,50.30
2023-04-07T15:06:37.038Z,50.30
2023-04-07T15:09:03.782Z,51.10
2023-04-07T15:11:30.613Z,50.00
2023-04-07T15:13:57.285Z,49.40
2023-04-07T15:16:23.994Z,50.30
2023-04-07T15:18:51.005Z,50.20
2023-04-07T15:21:18.331Z,50.10
2023-04-07T15:23:46.809Z,51.50
2023-04-07T15:26:13.690Z,52.00
2023-04-07T15:28:40.430Z,51.70
2023-04-07T15:31:10.191Z,51.70
2023-04-07T15:33:38.147Z,51.20
2023-04-07T15:36:09.122Z,51.50
2023-04-07T15:38:36.394Z,51.70
2023-04-07T15:41:03.134Z,52.20
2023-04-07T15:43:29.857Z,51.20
2023-04-07T15:45:56.523Z,51.10
2023-04-07T15:48:23.181Z,50.00
2023-04-07T15:50:49.878Z,49.10
2023-04-07T15:53:16.565Z,47.90
2023-04-07T15:55:44.217Z,48.20
2023-04-07T15:58:11.013Z,47.40
2023-04-07T16:00:38.984Z,48.00
2023-04-07T16:03:06.250Z,49.30
2023-04-07T16:05:33.347Z,49.50
2023-04-07T16:08:00.016Z,49.20
2023-04-07T16:10:26.787Z,49.50
2023-04-07T16:12:53.482Z,49.70
2023-04-07T16:15:28.885Z,50.60
2023-04-07T16:18:07.530Z,51.10
2023-04-07T16:20:34.288Z,52.30
2023-04-07T16:23:01.133Z,51.90
2023-04-07T16:25:27.916Z,52.30
2023-04-07T16:27:54.759Z,53.00
2023-04-07T16:30:21.945Z,53.10
2023-04-07T16:32:48.695Z,53.50
2023-04-07T16:35:15.839Z,55.10
2023-04-07T16:37:43.358Z,55.90
2023-04-07T16:40:10.915Z,56.00
2023-04-07T16:42:37.723Z,54.30
2023-04-07T16:45:05.308Z,52.60
2023-04-07T16:47:32.454Z,50.30
2023-04-07T16:49:59.458Z,46.90
2023-04-07T16:52:26.806Z,44.30
2023-04-07T16:54:53.471Z,43.40
2023-04-07T16:57:20.138Z,44.40
2023-04-07T16:59:47.182Z,45.90
2023-04-07T17:02:16.563Z,46.70
2023-04-07T17:04:43.909Z,47.60
2023-04-07T17:07:11.440Z,48.50
2023-04-07T17:09:38.737Z,48.80
2023-04-07T17:12:06.302Z,49.20
2023-04-07T17:14:33.611Z,49.40
2023-04-07T17:17:00.582Z,49.70
2023-04-07T17:19:27.313Z,50.00
2023-04-07T17:21:53.964Z,50.30
2023-04-07T17:24:21.084Z,50.90
2023-04-07T17:26:47.855Z,52.00
2023-04-07T17:29:15.936Z,52.50
2023-04-07T17:31:43.028Z,52.50
2023-04-07T17:34:10.448Z,52.30
2023-04-07T17:36:37.828Z,52.70
2023-04-07T17:39:05.412Z,54.90
2023-04-07T17:41:35.476Z,55.90
2023-04-07T17:44:02.445Z,57.30
2023-04-07T17:46:29.354Z,56.40
2023-04-07T17:48:58.979Z,56.60
2023-04-07T17:51:27.003Z,56.90
2023-04-07T17:53:54.333Z,57.20
2023-04-07T17:56:21.509Z,57.30
2023-04-07T17:58:48.596Z,57.40
2023-04-07T18:01:16.640Z,57.30
2023-04-07T18:03:44.000Z,57.70
2023-04-07T18:06:15.695Z,57.70
2023-04-07T18:08:42.740Z,58.60
2023-04-07T18:11:09.407Z,58.60
2023-04-07T18:13:36.109Z,59.50
2023-04-07T18:16:02.907Z,59.60
2023-04-07T18:18:29.590Z,59.80
2023-04-07T18:20:56.373Z,60.40
2023-04-07T18:23:23.015Z,62.90
2023-04-07T18:25:49.645Z,64.80
2023-04-07T18:28:17.040Z,66.00
2023-04-07T18:30:43.734Z,67.60
2023-04-07T18:33:10.565Z,67.60
2023-04-07T18:35:37.618Z,67.80
2023-04-07T18:38:04.720Z,68.30
2023-04-07T18:40:33.255Z,68.90
2023-04-07T18:43:00.021Z,69.20
2023-04-07T18:45:26.713Z,69.50
2023-04-07T18:47:53.413Z,70.40
2023-04-07T18:50:20.144Z,70.90
2023-04-07T18:52:46.815Z,70.80
2023-04-07T18:55:14.044Z,71.30
2023-04-07T18:57:41.044Z,71.90
2023-04-07T19:00:08.561Z,72.20
2023-04-07T19:02:35.470Z,72.30
2023-04-07T19:05:02.220Z,72.60
2023-04-07T19:07:28.911Z,72.90
2023-04-07T19:09:55.915Z,72.60
2023-04-07T19:12:22.622Z,72.10
2023-04-07T19:14:49.268Z,72.10
2023-04-07T19:17:16.413Z,71.90
2023-04-07T19:19:43.206Z,71.60
2023-04-07T19:22:09.995Z,71.10
2023-04-07T19:24:36.715Z,71.60
2023-04-07T19:27:04.175Z,72.20
2023-04-07T19:29:31.276Z,72.50
2023-04-07T19:31:57.994Z,73.10
2023-04-07T19:34:24.697Z,73.50
2023-04-07T19:36:51.594Z,73.20
2023-04-07T19:39:18.258Z,73.70
2023-04-07T19:41:44.938Z,73.40
2023-04-07T19:44:11.853Z,73.40
2023-04-07T19:46:38.552Z,74.00
2023-04-07T19:49:05.229Z,74.20
2023-04-07T19:51:32.951Z,74.20
2023-04-07T19:53:59.615Z,74.90
2023-04-07T19:56:26.298Z,75.20
2023-04-07T19:58:53.281Z,75.00
2023-04-07T20:01:20.332Z,75.30
2023-04-07T20:03:47.132Z,76.20
2023-04-07T20:06:14.965Z,76.50
2023-04-07T20:08:42.331Z,77.00
2023-04-07T20:11:13.133Z,77.00
2023-04-07T20:13:41.033Z,76.90
2023-04-07T20:16:08.330Z,77.20
2023-04-07T20:18:35.347Z,77.70
2023-04-07T20:21:03.376Z,77.80
2023-04-07T20:23:30.413Z,77.70
2023-04-07T20:25:57.145Z,77.90
2023-04-07T20:28:24.741Z,77.70
2023-04-07T20:30:51.495Z,77.60
2023-04-07T20:33:18.366Z,77.40
2023-04-07T20:35:45.260Z,78.70
2023-04-07T20:38:12.594Z,77.70
2023-04-07T20:40:39.362Z,78.00
2023-04-07T20:43:06.359Z,77.50
2023-04-07T20:45:33.821Z,77.60
2023-04-07T20:48:01.410Z,78.00
2023-04-07T20:50:28.571Z,77.50
2023-04-07T20:52:55.307Z,78.40
2023-04-07T20:55:22.224Z,78.20
2023-04-07T20:57:50.294Z,78.90
2023-04-07T21:00:18.765Z,79.50
2023-04-07T21:02:46.833Z,79.70
2023-04-07T21:05:13.706Z,80.40
2023-04-07T21:07:40.393Z,80.40
2023-04-07T21:10:08.641Z,80.60
2023-04-07T21:12:36.381Z,81.30
2023-04-07T21:15:03.285Z,81.80
2023-04-07T21:17:29.973Z,82.10
2023-04-07T21:19:56.661Z,81.40
2023-04-07T21:22:23.426Z,81.80
2023-04-07T21:24:52.240Z,81.90
2023-04-07T21:27:18.921Z,81.80
2023-04-07T21:29:45.697Z,81.60
2023-04-07T21:32:12.329Z,81.00
2023-04-07T21:34:39.007Z,80.10
2023-04-07T21:37:05.989Z,79.60
2023-04-07T21:39:33.450Z,79.40
2023-04-07T21:42:01.366Z,79.00
2023-04-07T21:44:28.044Z,78.40
2023-04-07T21:46:54.742Z,77.60
2023-04-07T21:49:22.389Z,77.10
2023-04-07T21:51:49.394Z,76.90
2023-04-07T21:54:17.108Z,77.40
2023-04-07T21:56:46.625Z,78.00
2023-04-07T21:59:13.321Z,77.90
2023-04-07T22:01:40.073Z,78.10
2023-04-07T22:04:07.190Z,78.40
2023-04-07T22:06:33.927Z,78.10
2023-04-07T22:09:02.267Z,78.20
2023-04-07T22:11:29.760Z,77.60
2023-04-07T22:13:56.430Z,78.00
2023-04-07T22:16:23.124Z,78.30
2023-04-07T22:18:50.596Z,78.50
2023-04-07T22:21:17.718Z,78.50
2023-04-07T22:23:44.847Z,78.20
2023-04-07T22:26:11.618Z,78.60
2023-04-07T22:28:38.302Z,78.40
2023-04-07T22:31:05.552Z,77.70
2023-04-07T22:33:32.280Z,77.70
2023-04-07T22:35:59.003Z,77.40
2023-04-07T22:38:25.889Z,78.30
2023-04-07T22:40:52.549Z,79.30
2023-04-07T22:43:19.200Z,79.60
2023-04-07T22:45:46.230Z,80.30
2023-04-07T22:48:13.065Z,79.80
2023-04-07T22:50:39.810Z,79.90
2023-04-07T22:53:07.304Z,80.00
2023-04-07T22:55:34.651Z,79.80
2023-04-07T22:58:01.752Z,79.70
2023-04-07T23:00:28.546Z,79.60
2023-04-07T23:02:55.516Z,80.00
2023-04-07T23:05:22.468Z,79.90
2023-04-07T23:07:51.261Z,79.00
2023-04-07T23:10:18.081Z,79.10
2023-04-07T23:12:44.740Z,78.60
2023-04-07T23:15:11.673Z,78.30
2023-04-07T23:17:38.417Z,77.60
2023-04-07T23:20:06.034Z,78.00
2023-04-07T23:22:32.731Z,77.80
2023-04-07T23:24:59.409Z,77.60
2023-04-07T23:27:26.122Z,76.80
2023-04-07T23:29:53.822Z,76.60
2023-04-07T23:32:21.323Z,77.00
2023-04-07T23:34:48.066Z,78.40
2023-04-07T23:37:14.849Z,78.60
2023-04-07T23:39:41.534Z,79.10
2023-04-07T23:42:08.321Z,80.60
2023-04-07T23:44:35.325Z,81.70
2023-04-07T23:47:02.109Z,81.70
2023-04-07T23:49:29.192Z,81.90
2023-04-07T23:51:55.989Z,82.10
2023-04-07T23:54:22.747Z,82.70
2023-04-07T23:56:49.587Z,82.60
2023-04-07T23:59:16.348Z,82.70
